Time;durP1;ratioP1;P1;durP2;ratioP2;P2;SDS_P1;SDS_P2;PMS_P1;PMS_P2;Temp;Humidity;BMP_temperature;BMP_pressure;BME280_temperature;BME280_humidity;BME280_pressure;Samples;Min_cycle;Max_cycle;Signal;HPM_P1;HPM_P2
2022/03/07 00:00:09;;;;;;;33.60;21.60;;;103.20;2227.20;;;;;;5072689;28;20024;-73
2022/03/07 00:02:36;;;;;;;35.65;21.05;;;103.20;2227.20;;;;;;5066645;28;20043;-72
2022/03/07 00:05:02;;;;;;;39.55;25.15;;;103.10;2227.20;;;;;;5059450;28;20025;-72
2022/03/07 00:07:31;;;;;;;35.47;22.23;;;103.10;2227.20;;;;;;5059759;28;20332;-72
2022/03/07 00:09:56;;;;;;;39.83;23.48;;;103.10;2227.20;;;;;;5068952;28;20035;-73
2022/03/07 00:12:22;;;;;;;36.58;23.05;;;103.10;2227.20;;;;;;5065462;28;20033;-72
2022/03/07 00:14:48;;;;;;;24.92;17.33;;;103.10;2227.20;;;;;;5055313;28;20029;-73
2022/03/07 00:17:14;;;;;;;27.98;17.35;;;103.00;2227.20;;;;;;5066080;28;20012;-72
2022/03/07 00:19:40;;;;;;;27.45;17.35;;;103.00;2227.20;;;;;;5072713;28;20036;-73
2022/03/07 00:22:05;;;;;;;27.60;17.60;;;103.00;2227.20;;;;;;5073724;28;20024;-72
2022/03/07 00:24:31;;;;;;;27.10;17.00;;;103.00;2227.20;;;;;;5073805;28;20483;-72
2022/03/07 00:26:57;;;;;;;28.30;20.00;;;102.90;2227.20;;;;;;5067965;28;20067;-72
2022/03/07 00:29:22;;;;;;;28.27;19.42;;;102.90;2227.20;;;;;;5065181;28;20036;-73
2022/03/07 00:31:51;;;;;;;28.48;18.48;;;102.90;2227.20;;;;;;5074032;28;20369;-72
2022/03/07 00:34:17;;;;;;;29.42;19.30;;;102.90;2227.20;;;;;;5072956;28;20487;-72
2022/03/07 00:36:43;;;;;;;28.83;19.17;;;102.90;2227.20;;;;;;5073810;28;20116;-71
2022/03/07 00:39:08;;;;;;;29.02;18.77;;;102.90;2227.20;;;;;;5062014;28;20052;-71
2022/03/07 00:41:34;;;;;;;28.95;18.63;;;102.90;2227.20;;;;;;5070741;28;20024;-71
2022/03/07 00:44:00;;;;;;;62.72;30.77;;;102.90;2227.20;;;;;;5071808;28;20111;-71
2022/03/07 00:46:28;;;;;;;45.65;27.08;;;102.70;2227.20;;;;;;5073114;28;20039;-70
2022/03/07 00:48:54;;;;;;;36.60;22.48;;;102.70;2227.20;;;;;;5071792;28;20103;-71
2022/03/07 00:51:20;;;;;;;34.58;21.67;;;102.80;2227.20;;;;;;5070159;28;20112;-71
2022/03/07 00:53:47;;;;;;;29.40;19.88;;;102.80;2227.20;;;;;;5059498;28;20139;-71
2022/03/07 00:56:13;;;;;;;31.48;20.27;;;102.80;2227.20;;;;;;5062320;28;20029;-71
2022/03/07 00:58:51;;;;;;;31.75;20.13;;;102.80;2227.20;;;;;;5065296;28;20099;-71
2022/03/07 01:01:17;;;;;;;38.28;20.92;;;102.90;2227.20;;;;;;5054598;28;20074;-71
2022/03/07 01:03:43;;;;;;;32.53;21.90;;;102.90;2227.20;;;;;;5073071;28;20467;-71
2022/03/07 01:06:09;;;;;;;32.63;21.20;;;102.90;2227.20;;;;;;5072591;28;20040;-71
2022/03/07 01:08:34;;;;;;;31.70;20.42;;;102.90;2227.20;;;;;;5064509;28;20040;-71
2022/03/07 01:11:00;;;;;;;28.55;20.05;;;102.80;2227.20;;;;;;5071285;28;20119;-71
2022/03/07 01:13:26;;;;;;;28.02;19.45;;;102.80;2227.20;;;;;;5073398;28;20073;-71
2022/03/07 01:15:58;;;;;;;34.15;20.05;;;103.00;2227.20;;;;;;5072672;28;20032;-71
2022/03/07 01:18:23;;;;;;;42.65;25.90;;;102.70;2227.20;;;;;;5072240;28;20384;-71
2022/03/07 01:20:49;;;;;;;39.78;23.10;;;102.50;2227.20;;;;;;5072866;28;20023;-71
2022/03/07 01:23:15;;;;;;;32.97;23.10;;;77.70;2227.20;;;;;;5072153;28;20494;-70
2022/03/07 01:25:41;;;;;;;38.58;23.48;;;77.60;2227.20;;;;;;5072528;28;20020;-70
2022/03/07 01:28:06;;;;;;;35.50;23.15;;;77.60;2227.20;;;;;;5072105;28;20020;-71
2022/03/07 01:30:33;;;;;;;35.65;22.58;;;77.50;2227.20;;;;;;5071771;28;20154;-71
2022/03/07 01:33:04;;;;;;;34.63;22.55;;;77.50;2227.20;;;;;;5072481;28;20056;-71
2022/03/07 01:35:30;;;;;;;38.83;23.02;;;77.40;2227.20;;;;;;5052681;28;20044;-71
2022/03/07 01:37:56;;;;;;;42.00;25.10;;;77.30;2227.20;;;;;;5052414;28;20045;-71
2022/03/07 01:40:25;;;;;;;40.40;23.77;;;77.40;2227.20;;;;;;5066000;28;20044;-70
2022/03/07 01:42:54;;;;;;;34.40;23.00;;;77.30;2227.20;;;;;;5072505;28;20333;-70
2022/03/07 01:45:20;;;;;;;32.08;23.65;;;77.30;2227.20;;;;;;5071744;28;20029;-71
2022/03/07 01:47:47;;;;;;;34.30;22.92;;;77.20;2227.20;;;;;;5072234;28;20083;-70
2022/03/07 01:50:18;;;;;;;38.05;23.02;;;77.10;2227.20;;;;;;5070280;28;20024;-71
2022/03/07 01:52:47;;;;;;;31.20;21.65;;;77.10;2227.20;;;;;;5071942;28;20023;-71
2022/03/07 01:55:14;;;;;;;35.05;21.90;;;77.20;2227.20;;;;;;5070245;28;20395;-70
2022/03/07 01:57:42;;;;;;;37.42;23.67;;;77.20;2227.20;;;;;;5087207;28;20035;-71
2022/03/07 02:00:14;;;;;;;37.85;21.67;;;77.20;2227.20;;;;;;5072049;28;20052;-71
2022/03/07 02:02:40;;;;;;;35.75;22.13;;;77.20;2227.20;;;;;;5070221;28;20020;-70
2022/03/07 02:05:06;;;;;;;37.80;22.80;;;77.20;2227.20;;;;;;5071344;28;20090;-71
2022/03/07 02:07:32;;;;;;;34.40;22.33;;;77.20;2227.20;;;;;;5069638;28;20444;-71
2022/03/07 02:09:59;;;;;;;32.97;21.95;;;77.20;2227.20;;;;;;5071926;28;20104;-71
2022/03/07 02:12:28;;;;;;;40.05;24.05;;;77.30;2227.20;;;;;;5069944;28;20036;-71
2022/03/07 02:14:54;;;;;;;35.67;22.88;;;77.30;2227.20;;;;;;5071373;28;20032;-71
2022/03/07 02:17:19;;;;;;;41.33;24.98;;;77.30;2227.20;;;;;;5071411;28;20029;-70
2022/03/07 02:19:45;;;;;;;41.53;23.02;;;77.30;2227.20;;;;;;5069078;28;20040;-71
2022/03/07 02:22:11;;;;;;;38.10;22.25;;;77.30;2227.20;;;;;;5086681;28;20036;-70
2022/03/07 02:24:37;;;;;;;39.58;22.77;;;77.50;2227.20;;;;;;5070925;28;20459;-71
2022/03/07 02:27:05;;;;;;;39.90;24.05;;;77.50;2227.20;;;;;;5071559;28;20111;-72
2022/03/07 02:29:32;;;;;;;39.80;25.25;;;77.50;2227.20;;;;;;5071254;28;20031;-70
2022/03/07 02:31:58;;;;;;;37.70;23.73;;;77.40;2227.20;;;;;;5086667;28;20036;-71
2022/03/07 02:34:27;;;;;;;40.70;25.38;;;77.40;2227.20;;;;;;5070881;28;20039;-71
2022/03/07 02:36:53;;;;;;;37.45;23.33;;;77.40;2227.20;;;;;;5071345;28;20037;-71
2022/03/07 02:39:19;;;;;;;37.95;24.33;;;77.50;2227.20;;;;;;5086305;28;20044;-71
2022/03/07 02:41:45;;;;;;;46.30;29.05;;;77.50;2227.20;;;;;;5071066;28;20031;-71
2022/03/07 02:44:21;;;;;;;35.80;23.80;;;77.50;2227.20;;;;;;5071277;28;20025;-71
2022/03/07 02:46:49;;;;;;;41.53;24.45;;;77.40;2227.20;;;;;;5070975;28;20826;-71
2022/03/07 02:49:15;;;;;;;44.47;24.95;;;77.30;2227.20;;;;;;5070660;28;20086;-71
2022/03/07 02:51:41;;;;;;;36.13;23.88;;;77.40;2227.20;;;;;;5070986;28;20020;-71
2022/03/07 02:54:07;;;;;;;38.72;24.17;;;77.40;2227.20;;;;;;5054909;28;20066;-71
2022/03/07 02:56:33;;;;;;;46.42;26.92;;;77.40;2227.20;;;;;;5051024;28;20029;-71
2022/03/07 02:58:59;;;;;;;39.80;24.60;;;77.40;2227.20;;;;;;5051341;28;20473;-71
2022/03/07 03:01:24;;;;;;;41.83;25.63;;;77.50;2227.20;;;;;;5051103;28;20098;-71
2022/03/07 03:03:50;;;;;;;37.35;24.73;;;77.50;2227.20;;;;;;5064624;28;20032;-72
2022/03/07 03:06:16;;;;;;;39.38;24.52;;;77.50;2227.20;;;;;;5069777;28;20071;-71
2022/03/07 03:08:42;;;;;;;39.80;24.17;;;77.50;2227.20;;;;;;5069687;28;20055;-71
2022/03/07 03:11:11;;;;;;;42.75;26.08;;;77.50;2227.20;;;;;;5071065;28;20106;-71
2022/03/07 03:13:37;;;;;;;36.67;25.33;;;77.40;2227.20;;;;;;5070623;28;20043;-71
2022/03/07 03:16:04;;;;;;;39.90;25.52;;;77.40;2227.20;;;;;;5070144;28;20024;-71
2022/03/07 03:18:30;;;;;;;44.88;25.27;;;77.50;2227.20;;;;;;5070338;28;20020;-71
2022/03/07 03:20:56;;;;;;;44.75;25.83;;;77.50;2227.20;;;;;;5070574;28;20398;-71
2022/03/07 03:23:22;;;;;;;44.35;27.02;;;77.40;2227.20;;;;;;5086081;28;20526;-71
2022/03/07 03:25:48;;;;;;;41.38;25.00;;;77.40;2227.20;;;;;;5070352;28;20111;-72
2022/03/07 03:28:14;;;;;;;43.78;27.83;;;77.30;2227.20;;;;;;5069452;28;20052;-71
2022/03/07 03:30:40;;;;;;;45.10;28.50;;;77.30;2227.20;;;;;;5070730;28;20056;-71
2022/03/07 03:33:12;;;;;;;46.10;27.30;;;77.30;2227.20;;;;;;5071025;28;20475;-71
2022/03/07 03:35:41;;;;;;;48.53;30.25;;;77.30;2227.20;;;;;;5070672;28;20032;-71
2022/03/07 03:38:10;;;;;;;45.85;28.58;;;77.30;2227.20;;;;;;5070864;28;20411;-72
2022/03/07 03:40:37;;;;;;;47.33;30.15;;;77.30;2227.20;;;;;;5070514;28;20383;-73
2022/03/07 03:43:03;;;;;;;51.97;29.60;;;77.30;2227.20;;;;;;5069863;28;20130;-72
2022/03/07 03:45:29;;;;;;;47.40;29.42;;;77.40;2227.20;;;;;;5070339;28;20491;-72
2022/03/07 03:47:55;;;;;;;42.90;27.70;;;77.50;2227.20;;;;;;5070239;28;20063;-71
2022/03/07 03:50:23;;;;;;;41.67;25.90;;;77.50;2227.20;;;;;;5069361;28;20037;-71
2022/03/07 03:52:53;;;;;;;41.92;24.98;;;77.50;2227.20;;;;;;5070443;28;20036;-71
2022/03/07 03:55:18;;;;;;;38.75;24.25;;;77.40;2227.20;;;;;;5069173;28;20037;-72
2022/03/07 03:57:45;;;;;;;41.42;25.00;;;77.40;2227.20;;;;;;5070477;28;20395;-71
2022/03/07 04:00:14;;;;;;;38.83;23.38;;;77.40;2227.20;;;;;;5085978;28;20063;-71
2022/03/07 04:02:44;;;;;;;38.15;24.48;;;77.30;2227.20;;;;;;5085804;28;20024;-72
2022/03/07 04:05:11;;;;;;;43.67;25.40;;;77.30;2227.20;;;;;;5070237;28;20119;-71
2022/03/07 04:07:38;;;;;;;39.10;23.50;;;77.30;2227.20;;;;;;5086208;28;20028;-72
2022/03/07 04:10:05;;;;;;;37.70;25.40;;;77.30;2227.20;;;;;;5070557;28;20729;-72
2022/03/07 04:12:55;;;;;;;42.58;26.10;;;77.40;2227.20;;;;;;5070502;28;20021;-72
2022/03/07 04:15:20;;;;;;;40.13;23.35;;;77.40;2227.20;;;;;;5085730;28;20086;-72
2022/03/07 04:17:46;;;;;;;40.60;24.70;;;77.30;2227.20;;;;;;5070327;28;20028;-73
2022/03/07 04:20:13;;;;;;;37.03;24.10;;;77.30;2227.20;;;;;;5070352;28;20029;-72
2022/03/07 04:22:39;;;;;;;43.45;24.95;;;77.40;2227.20;;;;;;5068956;28;20048;-72
2022/03/07 04:25:06;;;;;;;39.42;24.23;;;77.40;2227.20;;;;;;5069796;28;20024;-72
2022/03/07 04:27:32;;;;;;;37.70;23.10;;;77.30;2227.20;;;;;;5071023;28;20028;-73
2022/03/07 04:29:58;;;;;;;38.55;22.83;;;77.30;2227.20;;;;;;5074148;28;20032;-73
2022/03/07 04:32:23;;;;;;;41.60;24.23;;;77.30;2227.20;;;;;;5055747;28;20025;-72
2022/03/07 04:34:52;;;;;;;45.60;24.67;;;77.30;2227.20;;;;;;5054103;28;20056;-73
2022/03/07 04:37:18;;;;;;;41.38;24.73;;;77.30;2227.20;;;;;;5053781;28;20033;-73
2022/03/07 04:39:44;;;;;;;40.72;25.75;;;77.30;2227.20;;;;;;5054033;28;20036;-73
2022/03/07 04:42:10;;;;;;;40.15;23.35;;;77.30;2227.20;;;;;;5061261;28;20048;-73
2022/03/07 04:44:35;;;;;;;35.25;23.38;;;77.30;2227.20;;;;;;5071464;28;20043;-73
2022/03/07 04:47:01;;;;;;;38.50;23.45;;;77.30;2227.20;;;;;;5068627;28;20454;-74
2022/03/07 04:49:27;;;;;;;35.97;21.83;;;77.30;2227.20;;;;;;5061833;28;20501;-73
2022/03/07 04:51:53;;;;;;;36.55;24.27;;;77.40;2227.20;;;;;;5073757;28;20430;-73
2022/03/07 04:54:19;;;;;;;37.03;22.48;;;77.30;2227.20;;;;;;5071735;28;20032;-73
2022/03/07 04:56:47;;;;;;;34.33;21.73;;;77.40;2227.20;;;;;;5071833;28;20505;-73
2022/03/07 04:59:13;;;;;;;39.10;24.67;;;77.40;2227.20;;;;;;5064750;28;20536;-73
2022/03/07 05:01:39;;;;;;;37.95;23.85;;;77.40;2227.20;;;;;;5062722;28;20483;-73
2022/03/07 05:04:11;;;;;;;33.92;22.30;;;77.30;2227.20;;;;;;5062514;28;20096;-73
2022/03/07 05:06:39;;;;;;;32.83;19.55;;;77.30;2227.20;;;;;;5058911;28;20483;-73
2022/03/07 05:09:11;;;;;;;33.70;23.08;;;77.30;2227.20;;;;;;5062987;28;20503;-72
2022/03/07 05:11:37;;;;;;;41.05;24.77;;;77.40;2227.20;;;;;;5073064;28;20032;-75
2022/03/07 05:14:02;;;;;;;44.95;25.83;;;77.30;2227.20;;;;;;5071740;28;20397;-73
2022/03/07 05:16:28;;;;;;;42.42;25.35;;;77.40;2227.20;;;;;;5072623;28;20047;-73
2022/03/07 05:18:54;;;;;;;39.63;24.80;;;77.40;2227.20;;;;;;5072946;28;20020;-73
2022/03/07 05:21:20;;;;;;;37.38;24.55;;;77.40;2227.20;;;;;;5070946;28;20107;-73
2022/03/07 05:23:45;;;;;;;44.25;25.92;;;77.40;2227.20;;;;;;5070960;28;20037;-72
2022/03/07 05:26:11;;;;;;;40.22;23.92;;;77.40;2227.20;;;;;;5071707;28;20062;-73
2022/03/07 05:28:37;;;;;;;42.70;25.70;;;77.40;2227.20;;;;;;5071727;28;20021;-73
2022/03/07 05:31:03;;;;;;;42.13;29.15;;;77.40;2227.20;;;;;;5063302;28;20131;-72
2022/03/07 05:33:28;;;;;;;44.05;26.80;;;77.40;2227.20;;;;;;5065843;28;20051;-72
2022/03/07 05:35:54;;;;;;;42.70;26.10;;;77.40;2227.20;;;;;;5063661;28;20543;-72
2022/03/07 05:38:23;;;;;;;38.20;24.27;;;77.40;2227.20;;;;;;5067428;28;20036;-72
2022/03/07 05:40:49;;;;;;;48.15;30.15;;;77.50;2227.20;;;;;;5054408;28;20593;-73
2022/03/07 05:43:15;;;;;;;45.05;27.55;;;77.50;2227.20;;;;;;5062149;28;20115;-72
2022/03/07 05:45:40;;;;;;;47.97;27.20;;;77.50;2227.20;;;;;;5065337;28;20020;-72
2022/03/07 05:48:06;;;;;;;54.60;32.13;;;77.50;2227.20;;;;;;5069351;28;20035;-73
2022/03/07 05:50:32;;;;;;;49.28;30.63;;;77.50;2227.20;;;;;;5061545;28;20033;-73
2022/03/07 05:52:58;;;;;;;56.28;33.63;;;77.60;2227.20;;;;;;5059856;28;20028;-72
2022/03/07 05:55:24;;;;;;;55.88;31.50;;;77.60;2227.20;;;;;;5064246;28;20449;-73
2022/03/07 05:57:49;;;;;;;64.13;36.17;;;77.60;2227.20;;;;;;5064432;28;20052;-73
2022/03/07 06:00:16;;;;;;;53.50;29.33;;;77.60;2227.20;;;;;;5064066;28;20037;-73
2022/03/07 06:02:42;;;;;;;45.60;26.95;;;77.70;2227.20;;;;;;5059920;28;20017;-74
2022/03/07 06:05:09;;;;;;;41.78;25.27;;;77.70;2227.20;;;;;;5064719;28;20095;-74
2022/03/07 06:07:35;;;;;;;46.88;26.25;;;77.70;2227.20;;;;;;5057521;28;20067;-73
2022/03/07 06:10:01;;;;;;;46.00;28.48;;;102.40;2227.20;;;;;;5065184;28;20029;-74
2022/03/07 06:12:27;;;;;;;47.60;29.05;;;102.40;2227.20;;;;;;5057124;28;20411;-73
2022/03/07 06:14:53;;;;;;;47.67;27.30;;;102.50;2227.20;;;;;;5058428;28;20109;-73
2022/03/07 06:17:21;;;;;;;44.55;25.85;;;102.50;2227.20;;;;;;5062425;28;20394;-73
2022/03/07 06:19:47;;;;;;;46.50;27.92;;;102.50;2227.20;;;;;;5078997;28;20033;-72
2022/03/07 06:22:12;;;;;;;45.30;26.38;;;102.60;2176.00;;;;;;5053596;28;20029;-73
2022/03/07 06:24:38;;;;;;;44.50;27.77;;;102.50;2227.20;;;;;;5070228;28;20033;-72
2022/03/07 06:27:04;;;;;;;49.22;27.63;;;102.50;2227.20;;;;;;5054435;28;20052;-72
2022/03/07 06:29:29;;;;;;;49.38;28.45;;;102.50;2227.20;;;;;;5050401;28;20115;-72
2022/03/07 06:31:56;;;;;;;48.13;28.40;;;102.40;2227.20;;;;;;5058284;28;20389;-73
2022/03/07 06:34:21;;;;;;;45.70;28.45;;;102.60;2227.20;;;;;;5054669;28;20085;-72
2022/03/07 06:36:47;;;;;;;50.47;29.25;;;102.60;2201.60;;;;;;5062547;28;20117;-73
2022/03/07 06:39:13;;;;;;;43.25;27.80;;;102.60;2227.20;;;;;;5062833;28;20052;-73
2022/03/07 06:41:38;;;;;;;44.33;28.08;;;102.60;1920.00;;;;;;5059995;28;20031;-73
2022/03/07 06:44:07;;;;;;;44.55;28.60;;;102.60;2227.20;;;;;;5061026;28;20017;-72
2022/03/07 06:46:33;;;;;;;47.80;27.83;;;102.70;2227.20;;;;;;5061575;28;20028;-74
2022/03/07 06:49:05;;;;;;;41.05;26.15;;;102.90;2227.20;;;;;;5062667;28;20013;-73
2022/03/07 06:51:31;;;;;;;42.15;26.88;;;103.10;2227.20;;;;;;5068886;28;20036;-73
2022/03/07 08:24:53;;;;;;;19.25;13.73;;;154.30;2252.80;;;;;;5089527;27;20362;-72
2022/03/07 08:27:19;;;;;;;20.58;14.13;;;205.20;2252.80;;;;;;5088091;28;20101;-72
2022/03/07 08:29:45;;;;;;;22.17;14.10;;;205.10;2252.80;;;;;;5089376;28;20491;-72
2022/03/07 08:32:10;;;;;;;18.30;13.30;;;204.90;2252.80;;;;;;5087692;28;20039;-72
2022/03/07 08:34:38;;;;;;;20.13;14.60;;;205.10;2252.80;;;;;;5087947;28;20039;-73
2022/03/07 08:37:04;;;;;;;19.75;14.27;;;205.00;2252.80;;;;;;5087667;28;20400;-72
2022/03/07 08:39:29;;;;;;;26.10;15.13;;;205.20;2252.80;;;;;;5076109;28;20017;-72
2022/03/07 08:41:55;;;;;;;24.60;17.08;;;205.10;2252.80;;;;;;5074527;28;20027;-73
2022/03/07 08:44:21;;;;;;;29.35;16.98;;;205.10;2252.80;;;;;;5079462;28;20421;-72
2022/03/07 08:46:47;;;;;;;27.40;16.00;;;205.00;2252.80;;;;;;5080513;28;20055;-72
2022/03/07 08:49:13;;;;;;;24.50;16.05;;;204.80;2252.80;;;;;;5078490;28;20029;-73
2022/03/07 08:51:40;;;;;;;24.52;15.60;;;204.80;2252.80;;;;;;5077715;28;20165;-72
2022/03/07 08:54:06;;;;;;;33.53;20.90;;;204.90;2252.80;;;;;;5073949;28;20032;-73
2022/03/07 08:56:32;;;;;;;31.55;20.15;;;204.90;2252.80;;;;;;5075713;28;20488;-74
2022/03/07 08:58:57;;;;;;;20.50;15.35;;;180.10;2252.80;;;;;;5077373;28;20025;-75
2022/03/07 09:01:24;;;;;;;23.88;16.75;;;180.10;2252.80;;;;;;5073512;28;20047;-74
2022/03/07 09:03:50;;;;;;;25.13;17.70;;;204.80;2252.80;;;;;;5073063;28;20016;-73
2022/03/07 09:06:15;;;;;;;26.52;15.90;;;204.90;2252.80;;;;;;5076732;28;20029;-74
2022/03/07 09:08:41;;;;;;;24.10;17.38;;;204.80;2252.80;;;;;;5082564;28;20030;-72
2022/03/07 09:11:07;;;;;;;23.70;16.85;;;180.10;2252.80;;;;;;5078481;28;20468;-72
2022/03/07 09:13:33;;;;;;;30.95;17.73;;;180.10;2252.80;;;;;;5081177;28;20468;-72
2022/03/07 09:15:58;;;;;;;63.47;22.65;;;204.80;2252.80;;;;;;5076145;28;20032;-73
2022/03/07 09:18:26;;;;;;;38.50;19.52;;;204.80;2252.80;;;;;;5111603;28;20460;-73
2022/03/07 09:20:51;;;;;;;24.98;17.42;;;180.00;2252.80;;;;;;5080055;28;20514;-73
2022/03/07 09:23:17;;;;;;;31.95;18.48;;;179.80;2252.80;;;;;;5076016;28;20045;-73
2022/03/07 09:25:43;;;;;;;31.00;18.45;;;179.90;2252.80;;;;;;5065960;28;20094;-74
2022/03/07 09:28:09;;;;;;;33.03;20.83;;;179.90;2252.80;;;;;;5061133;28;20033;-73
2022/03/07 09:30:35;;;;;;;21.17;16.05;;;180.00;2252.80;;;;;;5064605;28;20044;-73
2022/03/07 09:33:03;;;;;;;26.73;17.30;;;204.80;2252.80;;;;;;5067172;28;20735;-73
2022/03/07 09:35:33;;;;;;;27.63;17.33;;;180.00;2252.80;;;;;;5063088;28;20052;-72
2022/03/07 09:37:59;;;;;;;28.80;18.92;;;179.90;2252.80;;;;;;5059507;28;20100;-72
2022/03/07 09:40:25;;;;;;;26.75;18.95;;;180.00;2252.80;;;;;;5056790;28;20059;-73
2022/03/07 09:42:52;;;;;;;34.42;20.15;;;204.90;2252.80;;;;;;5056017;28;20029;-73
2022/03/07 09:45:18;;;;;;;34.90;19.38;;;180.10;2252.80;;;;;;5052236;28;20045;-73
2022/03/07 09:47:45;;;;;;;31.65;21.25;;;205.00;2252.80;;;;;;5092414;28;20842;-73
2022/03/07 09:50:11;;;;;;;31.52;21.70;;;205.00;2252.80;;;;;;5066569;28;20024;-73
2022/03/07 09:52:37;;;;;;;30.02;20.98;;;204.80;2252.80;;;;;;5070352;28;20025;-75
2022/03/07 09:55:04;;;;;;;47.83;26.73;;;204.90;2252.80;;;;;;5064958;28;20028;-72
2022/03/07 09:57:32;;;;;;;35.88;22.63;;;205.00;2252.80;;;;;;5062576;28;20150;-73
2022/03/07 10:00:01;;;;;;;33.08;22.02;;;205.30;2252.80;;;;;;5071656;28;20310;-73
2022/03/07 10:02:28;;;;;;;43.85;29.20;;;205.30;2252.80;;;;;;5070979;28;20045;-72
2022/03/07 10:05:00;;;;;;;39.60;24.73;;;205.50;2252.80;;;;;;5068408;28;20372;-72
2022/03/07 10:07:25;;;;;;;37.03;23.48;;;205.40;2252.80;;;;;;5069438;28;20117;-72
2022/03/07 10:10:05;;;;;;;32.60;23.42;;;205.50;2252.80;;;;;;5069056;28;20494;-72
2022/03/07 10:12:31;;;;;;;37.40;23.33;;;205.50;2252.80;;;;;;5066151;28;20025;-73
2022/03/07 10:14:57;;;;;;;34.25;21.83;;;205.40;2252.80;;;;;;5070454;28;20082;-75
2022/03/07 10:17:25;;;;;;;35.83;25.02;;;230.40;2252.80;;;;;;5063153;28;20534;-72
2022/03/07 10:19:53;;;;;;;34.75;24.10;;;230.70;2252.80;;;;;;5067091;28;20024;-74
2022/03/07 10:22:25;;;;;;;35.65;24.63;;;230.70;2252.80;;;;;;5084204;28;22293;-72
2022/03/07 10:25:02;;;;;;;46.88;26.73;;;230.90;2252.80;;;;;;5061728;28;20446;-74
2022/03/07 10:27:31;;;;;;;32.42;22.92;;;231.10;2252.80;;;;;;5060769;28;20572;-74
2022/03/07 10:29:57;;;;;;;33.65;22.65;;;230.40;2252.80;;;;;;5050863;28;20060;-74
2022/03/07 10:32:23;;;;;;;42.10;23.33;;;230.50;2252.80;;;;;;5053522;28;20492;-74
2022/03/07 10:34:48;;;;;;;29.00;21.48;;;205.70;2252.80;;;;;;5062209;28;20024;-74
2022/03/07 10:37:15;;;;;;;33.03;22.17;;;205.20;2252.80;;;;;;5050807;28;20107;-74
2022/03/07 10:39:52;;;;;;;34.92;24.55;;;205.30;2252.80;;;;;;5053225;28;20025;-74
2022/03/07 10:42:20;;;;;;;33.50;22.40;;;204.90;2252.80;;;;;;5054713;28;20032;-75
2022/03/07 10:44:46;;;;;;;41.95;24.58;;;204.80;2252.80;;;;;;5059037;28;20025;-74
2022/03/07 10:47:18;;;;;;;30.23;20.95;;;205.00;2252.80;;;;;;5052123;28;20574;-75
2022/03/07 10:49:55;;;;;;;45.55;26.08;;;180.00;2252.80;;;;;;5060471;28;20027;-73
2022/03/07 10:52:22;;;;;;;36.05;25.02;;;204.80;2252.80;;;;;;5052729;28;20033;-73
2022/03/07 10:54:49;;;;;;;51.88;23.80;;;204.90;2252.80;;;;;;5062311;28;20024;-73
2022/03/07 10:57:20;;;;;;;31.65;22.67;;;205.10;2252.80;;;;;;5064106;28;20079;-74
2022/03/07 10:59:46;;;;;;;27.98;20.88;;;205.30;2252.80;;;;;;5067468;28;20520;-74
2022/03/07 11:02:16;;;;;;;34.75;22.92;;;205.20;2252.80;;;;;;5067586;28;20088;-73
2022/03/07 11:04:45;;;;;;;30.95;21.52;;;205.20;2252.80;;;;;;5055668;28;20051;-74
2022/03/07 11:07:12;;;;;;;30.13;20.48;;;205.20;2252.80;;;;;;5051933;28;20384;-74
2022/03/07 11:09:39;;;;;;;38.03;23.88;;;205.20;2252.80;;;;;;5057312;28;20017;-74
2022/03/07 11:12:09;;;;;;;40.80;25.17;;;205.10;2252.80;;;;;;5066688;28;20025;-75
2022/03/07 11:14:37;;;;;;;36.47;24.02;;;205.10;2252.80;;;;;;5062760;28;20128;-74
2022/03/07 11:17:03;;;;;;;31.23;22.15;;;205.30;2252.80;;;;;;5067873;28;20020;-74
2022/03/07 11:19:30;;;;;;;34.15;23.75;;;205.20;2252.80;;;;;;5065986;28;20100;-74
2022/03/07 11:21:56;;;;;;;43.88;28.52;;;205.10;2252.80;;;;;;5066600;28;20096;-74
2022/03/07 11:24:25;;;;;;;36.35;25.02;;;205.20;2252.80;;;;;;5069846;28;20060;-74
2022/03/07 11:26:53;;;;;;;37.38;25.48;;;205.00;2252.80;;;;;;5069238;28;20029;-74
2022/03/07 11:29:30;;;;;;;34.25;24.00;;;205.20;2252.80;;;;;;5071092;28;20028;-74
2022/03/07 11:32:01;;;;;;;31.83;22.13;;;205.30;2252.80;;;;;;5066952;28;20020;-74
2022/03/07 11:34:27;;;;;;;31.00;22.70;;;205.00;2252.80;;;;;;5067482;28;20033;-74
2022/03/07 11:36:53;;;;;;;39.35;26.48;;;180.10;2252.80;;;;;;5069213;28;20070;-74
2022/03/07 11:39:33;;;;;;;40.85;26.80;;;179.90;2252.80;;;;;;5061898;28;20111;-74
2022/03/07 11:42:14;;;;;;;46.70;29.67;;;180.00;2252.80;;;;;;5069410;28;20008;-75
2022/03/07 11:44:44;;;;;;;46.08;28.83;;;179.60;2252.80;;;;;;5067741;28;20530;-74
2022/03/07 11:47:16;;;;;;;51.38;32.30;;;179.40;2252.80;;;;;;5067926;28;20489;-74
2022/03/07 11:49:43;;;;;;;38.72;27.42;;;179.50;2252.80;;;;;;5059284;28;20016;-74
2022/03/07 11:52:17;;;;;;;56.40;34.92;;;179.60;2252.80;;;;;;5063530;28;20025;-74
2022/03/07 11:54:54;;;;;;;45.60;30.58;;;179.60;2252.80;;;;;;5058235;28;20021;-75
2022/03/07 11:57:35;;;;;;;48.60;30.15;;;179.60;2252.80;;;;;;5050535;28;20032;-74
2022/03/07 12:00:12;;;;;;;47.13;30.35;;;179.70;2252.80;;;;;;5056704;28;20889;-73
2022/03/07 12:02:40;;;;;;;49.42;31.58;;;179.60;2252.80;;;;;;5060614;28;20090;-75
2022/03/07 12:05:07;;;;;;;39.75;26.45;;;179.70;2252.80;;;;;;5052852;28;20506;-75
2022/03/07 12:07:33;;;;;;;49.25;30.90;;;180.00;2252.80;;;;;;5069485;28;20065;-74
2022/03/07 12:10:06;;;;;;;58.67;33.28;;;180.10;2252.80;;;;;;5071482;28;20060;-74
2022/03/07 12:12:31;;;;;;;61.72;30.05;;;205.00;2252.80;;;;;;5057953;28;20033;-74
2022/03/07 12:15:10;;;;;;;65.68;33.72;;;205.20;2252.80;;;;;;5054066;28;20104;-74
2022/03/07 12:17:36;;;;;;;51.67;29.98;;;205.40;2252.80;;;;;;5067369;28;20016;-75
2022/03/07 12:20:03;;;;;;;46.47;30.63;;;205.70;2252.80;;;;;;5055932;28;20556;-74
2022/03/07 12:22:31;;;;;;;48.42;29.63;;;230.40;2252.80;;;;;;5054956;28;20528;-75
2022/03/07 12:25:07;;;;;;;56.80;34.30;;;205.70;2252.80;;;;;;5059503;28;20033;-75
2022/03/07 12:27:37;;;;;;;50.92;30.88;;;205.60;2252.80;;;;;;5061427;28;20370;-74
2022/03/07 12:30:05;;;;;;;38.10;25.38;;;205.50;2252.80;;;;;;5060561;28;20413;-74
2022/03/07 12:32:31;;;;;;;42.72;28.70;;;205.50;2252.80;;;;;;5063031;28;20025;-74
2022/03/07 12:34:57;;;;;;;41.38;25.65;;;205.50;2252.80;;;;;;5060073;28;20029;-73
2022/03/07 12:37:23;;;;;;;43.75;27.00;;;205.70;2252.80;;;;;;5061566;28;20021;-74
2022/03/07 12:39:51;;;;;;;43.88;28.58;;;230.40;2252.80;;;;;;5061675;28;20021;-73
2022/03/07 12:42:20;;;;;;;51.03;28.67;;;230.50;2252.80;;;;;;5061921;28;20021;-74
2022/03/07 12:44:46;;;;;;;51.85;28.35;;;230.40;2252.80;;;;;;5063020;28;20504;-75
2022/03/07 12:47:12;;;;;;;41.42;25.95;;;230.40;2252.80;;;;;;5088317;28;20477;-74
2022/03/07 12:49:39;;;;;;;41.28;29.25;;;205.70;2252.80;;;;;;5062448;28;20043;-74
2022/03/07 12:52:08;;;;;;;47.58;28.58;;;205.70;2252.80;;;;;;5063244;28;20494;-75
2022/03/07 12:54:36;;;;;;;47.25;27.38;;;230.60;2252.80;;;;;;5062729;28;20035;-74
2022/03/07 12:57:03;;;;;;;44.85;28.88;;;230.70;2252.80;;;;;;5058835;28;20028;-74
2022/03/07 12:59:32;;;;;;;40.90;26.95;;;231.20;2252.80;;;;;;5061546;28;20108;-74
2022/03/07 13:01:58;;;;;;;61.78;33.10;;;256.20;2252.80;;;;;;5063028;28;20071;-75
2022/03/07 13:04:26;;;;;;;45.08;30.55;;;256.30;2252.80;;;;;;5060382;28;20087;-75
2022/03/07 13:06:55;;;;;;;39.05;25.88;;;256.40;2252.80;;;;;;5067371;28;20044;-74
2022/03/07 13:09:28;;;;;;;47.30;28.50;;;281.60;2278.40;;;;;;5073650;28;20035;-77
2022/03/07 13:11:54;;;;;;;39.50;26.40;;;256.80;2252.80;;;;;;5073162;28;20028;-75
2022/03/07 13:14:21;;;;;;;44.60;27.67;;;256.30;2252.80;;;;;;5074260;28;20025;-75
2022/03/07 13:16:47;;;;;;;40.03;26.92;;;231.20;2252.80;;;;;;5054148;28;20029;-74
2022/03/07 13:19:13;;;;;;;36.72;25.27;;;231.20;2252.80;;;;;;5054041;28;20553;-75
2022/03/07 13:21:41;;;;;;;33.25;23.70;;;230.90;2252.80;;;;;;5061207;28;20124;-74
2022/03/07 13:24:08;;;;;;;37.03;23.50;;;230.70;2252.80;;;;;;5060961;28;20049;-75
2022/03/07 13:26:35;;;;;;;31.77;20.42;;;230.50;2252.80;;;;;;5064725;28;20473;-74
2022/03/07 13:29:07;;;;;;;36.72;23.80;;;205.70;2252.80;;;;;;5066125;28;20044;-74
2022/03/07 13:31:47;;;;;;;29.92;21.38;;;205.50;2252.80;;;;;;5062175;28;20389;-74
2022/03/07 13:34:19;;;;;;;36.95;23.08;;;205.30;2252.80;;;;;;5062348;28;20052;-74